Time;durP1;ratioP1;P1;durP2;ratioP2;P2;SDS_P1;SDS_P2;PMS_P1;PMS_P2;Temp;Humidity;BMP_temperature;BMP_pressure;BME280_temperature;BME280_humidity;BME280_pressure;Samples;Min_cycle;Max_cycle;Signal;HPM_P1;HPM_P2
2021/03/06 00:01:50;;;;;;;4.90;2.40;;;17.50;45.00;;;;;;5152447;27;20066;-77
2021/03/06 00:04:15;;;;;;;3.70;1.98;;;17.50;45.10;;;;;;5152739;27;20534;-77
2021/03/06 00:06:41;;;;;;;3.88;2.25;;;17.40;45.20;;;;;;5153271;27;20031;-77
2021/03/06 00:09:06;;;;;;;3.50;2.38;;;17.40;45.30;;;;;;5152409;27;20100;-76
2021/03/06 00:11:32;;;;;;;5.45;2.13;;;17.40;45.20;;;;;;5151866;27;20046;-76
2021/03/06 00:13:58;;;;;;;3.65;2.00;;;17.40;45.20;;;;;;5151199;27;20067;-77
2021/03/06 00:16:23;;;;;;;5.07;2.65;;;17.30;45.10;;;;;;5151870;27;20035;-76
2021/03/06 00:18:49;;;;;;;5.25;2.08;;;17.30;45.10;;;;;;5153596;27;20060;-76
2021/03/06 00:21:15;;;;;;;4.95;2.80;;;17.30;45.20;;;;;;5151980;27;20445;-76
2021/03/06 00:23:40;;;;;;;5.95;2.45;;;17.20;45.20;;;;;;5153104;27;20027;-76
2021/03/06 00:26:06;;;;;;;6.07;2.22;;;17.20;45.00;;;;;;5151151;27;20026;-76
2021/03/06 00:28:31;;;;;;;4.90;2.75;;;17.10;45.10;;;;;;5134343;27;20035;-76
2021/03/06 00:30:58;;;;;;;4.80;2.30;;;17.10;45.10;;;;;;5152379;27;20063;-76
2021/03/06 00:33:23;;;;;;;4.43;2.53;;;17.00;45.20;;;;;;5152338;27;20508;-77
2021/03/06 00:35:49;;;;;;;5.90;2.50;;;17.00;45.10;;;;;;5152886;27;20022;-76
2021/03/06 00:38:14;;;;;;;4.25;2.85;;;17.00;45.10;;;;;;5152023;27;20069;-76
2021/03/06 00:40:40;;;;;;;5.22;2.10;;;16.90;45.70;;;;;;5151777;27;20018;-77
2021/03/06 00:43:06;;;;;;;5.50;2.47;;;16.90;45.10;;;;;;5151352;27;20022;-76
2021/03/06 00:45:31;;;;;;;4.55;2.45;;;16.90;45.10;;;;;;5152991;27;20035;-76
2021/03/06 00:47:57;;;;;;;4.22;2.65;;;16.90;45.10;;;;;;5150384;27;20034;-76
2021/03/06 00:50:31;;;;;;;4.50;2.60;;;16.90;45.10;;;;;;5153376;27;20015;-76
2021/03/06 00:52:57;;;;;;;4.85;2.50;;;16.80;44.80;;;;;;5151821;27;20125;-76
2021/03/06 00:55:22;;;;;;;5.22;2.45;;;16.80;44.80;;;;;;5151399;27;20023;-76
2021/03/06 00:57:48;;;;;;;5.13;2.78;;;16.80;44.90;;;;;;5152958;27;20432;-77
2021/03/06 01:00:14;;;;;;;4.65;2.30;;;16.80;45.30;;;;;;5151693;27;20026;-77
2021/03/06 01:02:40;;;;;;;4.05;2.22;;;16.80;44.90;;;;;;5152685;27;20398;-77
2021/03/06 01:05:06;;;;;;;3.85;2.40;;;16.80;44.70;;;;;;5152262;27;20033;-77
2021/03/06 01:07:32;;;;;;;4.32;2.60;;;16.70;44.70;;;;;;5152873;27;20108;-77
2021/03/06 01:09:58;;;;;;;6.10;2.50;;;16.70;44.70;;;;;;5151648;27;20476;-77
2021/03/06 01:12:23;;;;;;;4.88;2.50;;;16.60;44.80;;;;;;5151290;27;20041;-76
2021/03/06 01:14:49;;;;;;;7.70;2.83;;;16.60;45.00;;;;;;5150910;27;20019;-76
2021/03/06 01:17:14;;;;;;;5.95;2.53;;;16.60;44.90;;;;;;5152610;27;20354;-76
2021/03/06 01:19:40;;;;;;;3.90;2.33;;;16.60;44.80;;;;;;5151806;27;20026;-76
2021/03/06 01:22:06;;;;;;;4.82;2.55;;;16.60;44.90;;;;;;5153308;27;20022;-76
2021/03/06 01:24:31;;;;;;;4.90;2.67;;;16.60;44.80;;;;;;5155658;27;20053;-76
2021/03/06 01:26:57;;;;;;;3.83;2.30;;;16.60;44.80;;;;;;5151781;27;20035;-73
2021/03/06 01:29:22;;;;;;;3.55;2.50;;;16.50;44.70;;;;;;5155722;27;20562;-76
2021/03/06 01:31:48;;;;;;;4.05;2.50;;;16.50;44.60;;;;;;5155377;27;20021;-76
2021/03/06 01:34:14;;;;;;;5.13;2.70;;;16.50;44.70;;;;;;5155856;27;20030;-75
2021/03/06 01:36:39;;;;;;;5.63;2.88;;;16.40;44.80;;;;;;5153617;27;20029;-76
2021/03/06 01:39:05;;;;;;;5.47;2.63;;;16.40;44.80;;;;;;5155848;27;20114;-77
2021/03/06 01:41:31;;;;;;;4.10;2.20;;;16.40;44.70;;;;;;5155610;27;20044;-76
2021/03/06 01:43:56;;;;;;;4.70;2.33;;;16.40;44.80;;;;;;5154957;27;20058;-76
2021/03/06 01:46:22;;;;;;;4.40;2.00;;;16.40;44.80;;;;;;5155492;27;20102;-76
2021/03/06 01:48:47;;;;;;;4.22;2.47;;;16.40;44.70;;;;;;5155097;27;20027;-76
2021/03/06 01:51:13;;;;;;;6.30;2.45;;;16.40;44.60;;;;;;5155792;27;20014;-77
2021/03/06 01:53:38;;;;;;;5.70;2.17;;;16.30;44.60;;;;;;5154955;27;20421;-77
2021/03/06 01:56:04;;;;;;;5.45;2.55;;;16.30;44.50;;;;;;5154446;27;20019;-77
2021/03/06 01:58:30;;;;;;;4.32;1.95;;;16.30;44.50;;;;;;5137092;27;20074;-77
2021/03/06 02:00:56;;;;;;;6.05;3.15;;;16.30;44.50;;;;;;5154965;27;20026;-77
2021/03/06 02:03:21;;;;;;;5.95;2.80;;;16.30;44.50;;;;;;5154748;27;20035;-76
2021/03/06 02:05:47;;;;;;;5.43;2.50;;;16.20;44.40;;;;;;5154467;27;20095;-77
2021/03/06 02:08:13;;;;;;;3.65;2.15;;;16.20;44.50;;;;;;5135965;27;20027;-76
2021/03/06 02:10:42;;;;;;;3.65;2.10;;;16.20;44.60;;;;;;5155184;27;20110;-76
2021/03/06 02:13:59;;;;;;;4.47;2.15;;;16.20;44.40;;;;;;5152113;27;20093;-76
2021/03/06 02:16:43;;;;;;;4.30;2.10;;;16.20;44.50;;;;;;5118970;27;20043;-77
2021/03/06 02:19:36;;;;;;;4.20;2.10;;;16.10;44.40;;;;;;5155421;27;20115;-76
2021/03/06 02:22:27;;;;;;;2.75;1.80;;;16.10;44.60;;;;;;5153987;27;20030;-77
2021/03/06 02:25:01;;;;;;;4.05;2.35;;;16.00;44.50;;;;;;5126849;27;20039;-76
2021/03/06 02:27:49;;;;;;;3.95;2.17;;;16.00;44.50;;;;;;5154135;27;20118;-76
2021/03/06 02:30:15;;;;;;;5.05;2.30;;;16.00;44.50;;;;;;5154040;27;20022;-76
2021/03/06 02:32:47;;;;;;;3.85;2.10;;;16.00;44.50;;;;;;5154594;27;20027;-77
2021/03/06 02:35:15;;;;;;;4.35;2.60;;;16.00;44.50;;;;;;5153633;27;20061;-77
2021/03/06 02:38:06;;;;;;;4.50;2.17;;;16.00;44.60;;;;;;5154956;27;20026;-76
2021/03/06 02:40:32;;;;;;;3.72;2.10;;;16.00;44.50;;;;;;5151536;27;20079;-76
2021/03/06 02:43:00;;;;;;;6.47;2.65;;;15.90;44.50;;;;;;5154225;27;20123;-77
2021/03/06 02:45:27;;;;;;;5.88;2.80;;;15.90;44.50;;;;;;5155082;27;20034;-76
2021/03/06 02:47:53;;;;;;;5.05;2.17;;;15.90;44.40;;;;;;5152519;27;20031;-77
2021/03/06 02:50:19;;;;;;;4.78;2.42;;;15.90;44.50;;;;;;5134523;27;20026;-77
2021/03/06 02:52:44;;;;;;;5.57;2.55;;;15.90;44.50;;;;;;5154349;27;20027;-76
2021/03/06 02:55:11;;;;;;;3.97;2.15;;;15.90;44.40;;;;;;5153747;27;20033;-76
2021/03/06 02:57:43;;;;;;;5.57;2.20;;;15.80;44.40;;;;;;5153265;27;20041;-75
2021/03/06 03:00:15;;;;;;;5.70;2.65;;;15.80;44.40;;;;;;5134674;27;20104;-76
2021/03/06 03:03:12;;;;;;;3.97;2.42;;;15.80;44.40;;;;;;5153597;27;20030;-76
2021/03/06 03:06:16;;;;;;;4.97;2.28;;;15.80;44.40;;;;;;5153552;27;20066;-76
2021/03/06 03:08:51;;;;;;;4.43;2.40;;;15.80;44.40;;;;;;5133673;27;20023;-76
2021/03/06 03:11:21;;;;;;;4.35;2.30;;;15.70;44.40;;;;;;5140612;27;20033;-76
2021/03/06 03:13:56;;;;;;;4.25;2.50;;;15.70;44.30;;;;;;5152363;27;20023;-76
2021/03/06 03:16:44;;;;;;;5.05;2.33;;;15.70;44.20;;;;;;5154128;27;20216;-76
2021/03/06 03:19:21;;;;;;;4.40;2.17;;;15.70;45.00;;;;;;5153983;27;20501;-76
2021/03/06 03:21:52;;;;;;;6.97;2.08;;;15.70;44.40;;;;;;5153190;27;20014;-76
2021/03/06 03:24:20;;;;;;;3.90;2.25;;;15.70;44.40;;;;;;5153747;27;20033;-76
2021/03/06 03:26:47;;;;;;;5.78;2.47;;;15.70;44.40;;;;;;5154139;27;20083;-76
2021/03/06 03:29:14;;;;;;;5.80;2.50;;;15.70;44.30;;;;;;5153657;27;20490;-76
2021/03/06 03:31:46;;;;;;;4.28;2.00;;;15.60;44.40;;;;;;5152798;27;20022;-76
2021/03/06 03:34:14;;;;;;;5.45;2.30;;;15.60;44.30;;;;;;5151552;27;20599;-76
2021/03/06 03:36:40;;;;;;;3.72;1.90;;;15.60;44.20;;;;;;5153286;27;20026;-76
2021/03/06 03:39:07;;;;;;;4.15;2.15;;;15.60;44.30;;;;;;5152671;27;20447;-76
2021/03/06 03:41:33;;;;;;;4.75;2.83;;;15.60;44.30;;;;;;5153812;27;20027;-76
2021/03/06 03:44:02;;;;;;;6.03;2.72;;;15.50;44.30;;;;;;5150850;27;20390;-76
2021/03/06 03:46:29;;;;;;;6.30;2.60;;;15.50;44.30;;;;;;5152308;27;20493;-76
2021/03/06 03:48:55;;;;;;;5.70;2.58;;;15.50;44.30;;;;;;5153628;27;20029;-76
2021/03/06 03:51:21;;;;;;;5.78;2.08;;;15.50;44.40;;;;;;5152596;27;20026;-75
2021/03/06 03:53:48;;;;;;;3.17;1.90;;;15.50;44.40;;;;;;5152436;27;20398;-76
2021/03/06 03:56:14;;;;;;;5.75;2.72;;;15.40;44.20;;;;;;5152146;27;20023;-77
2021/03/06 03:58:40;;;;;;;4.35;2.20;;;15.50;44.40;;;;;;5150832;27;20053;-76
2021/03/06 04:01:05;;;;;;;5.80;2.55;;;15.40;44.30;;;;;;5147938;27;20027;-76
2021/03/06 04:03:31;;;;;;;4.78;2.25;;;15.50;44.40;;;;;;5153508;27;20029;-76
2021/03/06 04:05:58;;;;;;;3.75;2.00;;;15.40;44.30;;;;;;5152062;27;20034;-77
2021/03/06 04:08:24;;;;;;;4.93;2.10;;;15.40;44.30;;;;;;5153259;27;20068;-76
2021/03/06 04:10:49;;;;;;;4.70;2.17;;;15.40;44.20;;;;;;5133988;27;20030;-76
2021/03/06 04:13:15;;;;;;;5.25;2.00;;;15.40;44.30;;;;;;5151958;27;20015;-76
2021/03/06 04:15:41;;;;;;;5.18;2.20;;;15.30;44.30;;;;;;5153390;27;20110;-77
2021/03/06 04:18:07;;;;;;;5.95;2.40;;;15.30;44.40;;;;;;5151780;27;20394;-77
2021/03/06 04:20:33;;;;;;;5.25;2.45;;;15.30;44.30;;;;;;5153583;27;20031;-76
2021/03/06 04:22:59;;;;;;;5.53;2.47;;;15.30;44.40;;;;;;5152553;27;20015;-76
2021/03/06 04:25:26;;;;;;;5.60;2.13;;;15.30;44.90;;;;;;5148430;27;20374;-75
2021/03/06 04:27:52;;;;;;;4.10;2.00;;;15.30;44.40;;;;;;5145238;27;20643;-76
2021/03/06 04:30:19;;;;;;;4.50;2.53;;;15.30;44.40;;;;;;5149943;27;20037;-76
2021/03/06 04:32:44;;;;;;;5.78;2.22;;;15.30;44.40;;;;;;5152703;27;20015;-75
2021/03/06 04:35:11;;;;;;;4.05;2.50;;;15.30;44.40;;;;;;5152210;27;20023;-77
2021/03/06 04:37:38;;;;;;;4.85;2.22;;;15.30;44.40;;;;;;5153097;27;20031;-77
2021/03/06 04:40:06;;;;;;;3.90;2.22;;;15.30;44.40;;;;;;5152285;27;20023;-77
2021/03/06 04:42:32;;;;;;;3.72;1.80;;;15.30;44.40;;;;;;5134313;27;20038;-76
2021/03/06 04:44:57;;;;;;;4.72;2.30;;;15.30;44.50;;;;;;5151460;27;20443;-76
2021/03/06 04:47:23;;;;;;;5.55;2.38;;;15.30;44.40;;;;;;5152295;27;20050;-76
2021/03/06 04:49:49;;;;;;;3.85;2.28;;;15.20;44.40;;;;;;5152936;27;20015;-76
2021/03/06 04:52:14;;;;;;;4.30;2.22;;;15.20;44.40;;;;;;5152190;27;20027;-76
2021/03/06 04:54:40;;;;;;;7.22;2.10;;;15.20;44.30;;;;;;5151931;27;20054;-76
2021/03/06 04:57:07;;;;;;;3.92;2.42;;;15.20;44.40;;;;;;5154330;27;20027;-77
2021/03/06 04:59:32;;;;;;;4.10;2.10;;;15.20;45.00;;;;;;5137277;27;20557;-76
2021/03/06 05:01:58;;;;;;;4.13;2.00;;;15.20;44.40;;;;;;5137213;27;20018;-77
2021/03/06 05:04:23;;;;;;;5.30;1.98;;;15.20;44.40;;;;;;5156902;27;20109;-77
2021/03/06 05:06:49;;;;;;;4.65;2.10;;;15.10;44.40;;;;;;5154782;27;20494;-77
2021/03/06 05:09:15;;;;;;;5.07;2.10;;;15.10;44.40;;;;;;5155145;27;20031;-77
2021/03/06 05:11:40;;;;;;;4.35;2.30;;;15.20;44.50;;;;;;5155559;27;20493;-77
2021/03/06 05:14:06;;;;;;;4.55;1.80;;;15.10;44.50;;;;;;5155048;27;20568;-77
2021/03/06 05:16:32;;;;;;;4.60;2.40;;;15.10;45.00;;;;;;5155660;27;20545;-76
2021/03/06 05:18:57;;;;;;;7.95;2.38;;;15.10;44.40;;;;;;5138051;27;20071;-77
2021/03/06 05:21:23;;;;;;;4.68;2.10;;;15.10;44.40;;;;;;5154561;27;20120;-78
2021/03/06 05:23:49;;;;;;;7.68;2.45;;;15.10;44.30;;;;;;5156458;27;20385;-76
2021/03/06 05:26:14;;;;;;;5.22;2.17;;;15.10;44.30;;;;;;5155020;27;20027;-76
2021/03/06 05:28:40;;;;;;;6.95;2.35;;;15.10;44.40;;;;;;5151851;27;20030;-76
2021/03/06 05:31:06;;;;;;;5.97;2.20;;;15.10;44.40;;;;;;5155245;27;20513;-77
2021/03/06 05:33:32;;;;;;;5.35;2.13;;;15.00;44.40;;;;;;5155852;27;20034;-77
2021/03/06 05:35:57;;;;;;;4.97;2.35;;;15.10;44.50;;;;;;5155235;27;20018;-77
2021/03/06 05:38:23;;;;;;;4.28;2.53;;;15.10;44.40;;;;;;5154927;27;20038;-77
2021/03/06 05:40:49;;;;;;;3.80;1.85;;;15.00;44.40;;;;;;5156071;27;20022;-76
2021/03/06 05:43:16;;;;;;;6.15;2.38;;;15.00;44.40;;;;;;5152782;27;20027;-77
2021/03/06 05:45:46;;;;;;;4.85;2.40;;;15.00;44.70;;;;;;5154295;27;20030;-76
2021/03/06 05:48:12;;;;;;;4.78;1.90;;;15.00;44.30;;;;;;5154473;27;20026;-76
2021/03/06 05:50:39;;;;;;;5.03;2.00;;;15.00;44.40;;;;;;5156093;27;20158;-76
2021/03/06 05:53:09;;;;;;;5.10;1.90;;;15.00;44.50;;;;;;5155219;27;20038;-76
2021/03/06 05:55:37;;;;;;;4.28;2.05;;;15.00;44.50;;;;;;5153289;27;20015;-76
2021/03/06 05:58:04;;;;;;;4.93;2.25;;;15.00;44.40;;;;;;5153573;27;20509;-76
2021/03/06 06:00:31;;;;;;;8.13;2.80;;;15.00;44.50;;;;;;5153177;27;20011;-75
2021/03/06 06:02:57;;;;;;;3.20;2.08;;;15.00;44.60;;;;;;5153997;27;20035;-76
2021/03/06 06:05:24;;;;;;;4.30;1.90;;;15.00;44.60;;;;;;5154514;27;20050;-76
2021/03/06 06:07:54;;;;;;;4.22;2.30;;;14.90;44.50;;;;;;5153774;27;20034;-76
2021/03/06 06:10:20;;;;;;;3.60;1.73;;;14.90;44.70;;;;;;5153887;27;20026;-76
2021/03/06 06:12:46;;;;;;;4.63;2.60;;;14.90;44.70;;;;;;5154644;27;20030;-76
2021/03/06 06:15:13;;;;;;;4.00;2.15;;;14.90;44.60;;;;;;5154658;27;20019;-77
2021/03/06 06:17:39;;;;;;;4.47;2.10;;;14.90;44.70;;;;;;5154443;27;20035;-76
2021/03/06 06:20:06;;;;;;;3.40;1.85;;;14.90;44.70;;;;;;5155424;27;20019;-77
2021/03/06 06:22:32;;;;;;;4.57;2.17;;;14.90;44.70;;;;;;5154449;27;20027;-76
2021/03/06 06:24:57;;;;;;;2.78;1.63;;;14.90;44.70;;;;;;5155317;27;20382;-77
2021/03/06 06:27:24;;;;;;;4.18;2.17;;;14.90;44.70;;;;;;5154623;27;20071;-76
2021/03/06 06:29:51;;;;;;;5.05;1.80;;;14.90;44.80;;;;;;5135038;27;20578;-77
2021/03/06 06:32:41;;;;;;;3.58;2.05;;;14.90;44.80;;;;;;5154730;27;20026;-77
2021/03/06 06:35:08;;;;;;;4.85;1.98;;;14.80;44.70;;;;;;5152168;27;20042;-77
2021/03/06 06:37:35;;;;;;;3.83;1.83;;;14.90;44.80;;;;;;5155006;27;20039;-77
2021/03/06 06:40:19;;;;;;;6.78;2.35;;;14.90;44.80;;;;;;5126614;27;20087;-77
2021/03/06 06:42:45;;;;;;;3.95;2.00;;;14.80;44.70;;;;;;5134423;27;20015;-76
2021/03/06 06:45:11;;;;;;;4.63;2.20;;;14.80;44.70;;;;;;5151146;27;20397;-77
2021/03/06 06:47:46;;;;;;;5.95;1.80;;;14.80;44.80;;;;;;5152818;27;20019;-76
2021/03/06 06:50:13;;;;;;;2.63;1.77;;;14.80;44.70;;;;;;5155312;27;20100;-77
2021/03/06 06:52:40;;;;;;;4.07;1.85;;;14.80;44.80;;;;;;5153380;27;20332;-77
2021/03/06 06:55:08;;;;;;;5.88;2.28;;;14.80;44.70;;;;;;5153909;27;20022;-77
2021/03/06 06:57:34;;;;;;;5.30;2.28;;;14.80;44.80;;;;;;5153341;27;20022;-77
2021/03/06 07:00:05;;;;;;;5.70;1.90;;;14.80;44.80;;;;;;5153517;27;20022;-77
2021/03/06 07:02:31;;;;;;;3.85;2.05;;;14.80;44.70;;;;;;5153459;27;20038;-75
2021/03/06 07:05:06;;;;;;;5.13;2.03;;;14.80;44.70;;;;;;5136060;27;20018;-76
2021/03/06 07:07:37;;;;;;;3.35;1.80;;;14.80;44.70;;;;;;5152583;27;20033;-76
2021/03/06 07:10:12;;;;;;;6.43;2.30;;;14.70;44.70;;;;;;5152069;27;20949;-76
2021/03/06 07:13:00;;;;;;;6.20;2.28;;;14.70;44.70;;;;;;5152782;27;20027;-76
2021/03/06 07:15:27;;;;;;;5.57;1.80;;;14.70;44.80;;;;;;5131581;27;20035;-76
2021/03/06 07:17:56;;;;;;;5.18;2.10;;;14.70;44.70;;;;;;5154118;27;20398;-76
2021/03/06 07:20:22;;;;;;;5.80;2.20;;;14.70;44.70;;;;;;5153424;27;20051;-76
2021/03/06 07:22:55;;;;;;;6.05;2.50;;;14.80;44.60;;;;;;5153807;27;20113;-77
2021/03/06 07:25:22;;;;;;;4.43;1.63;;;14.90;44.50;;;;;;5153187;27;20022;-77
2021/03/06 07:27:47;;;;;;;4.78;2.10;;;15.00;45.00;;;;;;5154066;27;20025;-74
2021/03/06 07:30:15;;;;;;;4.20;1.85;;;15.10;44.40;;;;;;5134144;27;20018;-77
2021/03/06 07:32:43;;;;;;;3.30;1.90;;;15.20;44.30;;;;;;5154138;27;20030;-76
2021/03/06 07:35:11;;;;;;;4.00;2.15;;;15.20;44.20;;;;;;5163795;27;20054;-75
2021/03/06 07:37:39;;;;;;;2.42;1.40;;;15.30;44.20;;;;;;5174826;27;20086;-75
2021/03/06 07:40:13;;;;;;;5.22;1.73;;;15.40;44.80;;;;;;5174773;27;20018;-75
2021/03/06 07:42:43;;;;;;;6.07;1.75;;;15.50;44.20;;;;;;5168147;27;20050;-75
2021/03/06 07:45:19;;;;;;;3.80;1.83;;;15.50;44.20;;;;;;5134736;27;20045;-75
2021/03/06 07:47:46;;;;;;;;;;;15.60;44.20;;;;;;5149528;27;20019;-75
2021/03/06 07:50:26;;;;;;;5.18;2.10;;;15.70;44.10;;;;;;5156597;27;19923;-75
2021/03/06 07:52:52;;;;;;;6.22;2.33;;;15.80;44.70;;;;;;5169713;27;20439;-74
2021/03/06 07:55:18;;;;;;;3.28;1.90;;;15.90;44.10;;;;;;5174310;27;20037;-75
2021/03/06 07:58:02;;;;;;;4.82;2.13;;;16.10;44.10;;;;;;5174708;27;20026;-74
2021/03/06 08:00:42;;;;;;;5.05;1.70;;;16.30;44.00;;;;;;5171052;27;20018;-75
2021/03/06 08:03:33;;;;;;;3.85;1.83;;;16.50;44.10;;;;;;5168433;27;20489;-75
2021/03/06 08:06:17;;;;;;;6.22;1.77;;;16.70;44.10;;;;;;5168566;27;20057;-75
2021/03/06 08:08:46;;;;;;;4.78;1.90;;;16.90;44.30;;;;;;5153672;27;20386;-75
2021/03/06 08:11:16;;;;;;;4.22;1.83;;;17.00;44.30;;;;;;5153414;27;20092;-75
2021/03/06 08:13:53;;;;;;;4.35;2.10;;;17.10;44.50;;;;;;5153207;27;20075;-75
2021/03/06 08:16:24;;;;;;;4.78;2.13;;;17.30;45.00;;;;;;5146729;27;20014;-74
2021/03/06 08:18:51;;;;;;;5.40;1.85;;;17.30;45.20;;;;;;5173889;27;20029;-75
2021/03/06 08:21:42;;;;;;;10.35;2.80;;;17.50;45.10;;;;;;5167223;27;20466;-75
2021/03/06 08:24:21;;;;;;;6.18;1.90;;;17.50;45.00;;;;;;5152897;27;20110;-74
2021/03/06 08:27:02;;;;;;;7.65;2.05;;;17.70;45.00;;;;;;5153260;27;20103;-75
2021/03/06 08:29:31;;;;;;;5.72;1.98;;;17.70;44.90;;;;;;5152826;27;20022;-75
2021/03/06 08:32:13;;;;;;;5.47;2.03;;;17.70;45.00;;;;;;5155306;27;20030;-75
2021/03/06 08:34:44;;;;;;;5.22;1.77;;;17.70;44.60;;;;;;5157136;27;20023;-75
2021/03/06 08:37:15;;;;;;;5.30;2.17;;;17.70;45.00;;;;;;5157125;27;20482;-75
2021/03/06 08:39:47;;;;;;;6.38;2.10;;;17.80;44.70;;;;;;5156827;27;20023;-76
2021/03/06 08:42:14;;;;;;;6.80;1.67;;;18.00;44.70;;;;;;5157344;27;20050;-76
2021/03/06 08:44:41;;;;;;;6.80;2.05;;;18.10;44.50;;;;;;5156617;27;20046;-76
2021/03/06 08:47:07;;;;;;;3.13;1.60;;;18.20;44.40;;;;;;5157254;27;20034;-76
2021/03/06 08:49:34;;;;;;;4.88;1.60;;;18.30;44.50;;;;;;5157214;27;20019;-77
2021/03/06 08:52:00;;;;;;;4.85;2.00;;;18.30;44.80;;;;;;5156987;27;20105;-76
2021/03/06 08:54:26;;;;;;;5.07;2.40;;;18.40;45.70;;;;;;5156715;27;20065;-77
2021/03/06 08:56:52;;;;;;;5.63;2.88;;;18.40;45.00;;;;;;5157181;27;20030;-79
2021/03/06 08:59:19;;;;;;;9.52;2.50;;;18.30;43.80;;;;;;5157439;27;20052;-79
2021/03/06 09:01:46;;;;;;;8.48;2.78;;;18.30;43.60;;;;;;5156857;27;20038;-78
2021/03/06 09:04:12;;;;;;;11.75;2.78;;;18.30;43.80;;;;;;5159229;27;20022;-77
2021/03/06 09:06:42;;;;;;;13.10;2.97;;;18.30;43.70;;;;;;5156541;27;20405;-75
2021/03/06 09:09:10;;;;;;;10.60;2.90;;;18.30;43.70;;;;;;5156803;27;20027;-76
2021/03/06 09:11:58;;;;;;;9.65;2.90;;;18.30;43.60;;;;;;5156722;27;20047;-76
2021/03/06 09:14:25;;;;;;;9.05;2.63;;;18.40;43.30;;;;;;5157300;27;20069;-76
2021/03/06 09:16:51;;;;;;;7.90;2.90;;;18.40;43.10;;;;;;5156389;27;20022;-76
2021/03/06 09:19:27;;;;;;;8.95;2.90;;;18.40;42.70;;;;;;5156237;27;20038;-79
2021/03/06 09:22:11;;;;;;;9.07;2.58;;;18.40;42.40;;;;;;5156598;27;20026;-76
2021/03/06 09:24:44;;;;;;;8.77;2.78;;;18.50;42.10;;;;;;5156696;27;20019;-77
2021/03/06 09:27:09;;;;;;;7.90;2.67;;;18.50;41.80;;;;;;5156227;27;20080;-77
2021/03/06 09:29:35;;;;;;;8.07;3.13;;;18.50;41.60;;;;;;5156177;27;20034;-76
2021/03/06 09:32:01;;;;;;;9.95;2.42;;;18.50;42.10;;;;;;5156050;27;20065;-77
2021/03/06 09:34:28;;;;;;;7.13;2.88;;;18.60;41.60;;;;;;5156391;27;20015;-77
2021/03/06 09:36:54;;;;;;;8.30;2.47;;;18.60;41.50;;;;;;5156345;27;20027;-77
2021/03/06 09:39:26;;;;;;;7.32;3.00;;;18.60;41.50;;;;;;5156554;27;20019;-77
2021/03/06 09:41:52;;;;;;;6.18;2.85;;;18.70;41.50;;;;;;5156385;27;20023;-77
2021/03/06 09:44:18;;;;;;;6.95;2.42;;;18.70;41.40;;;;;;5154946;27;20370;-74
2021/03/06 09:46:45;;;;;;;6.75;3.15;;;18.70;41.30;;;;;;5155975;27;20037;-73
2021/03/06 09:49:15;;;;;;;5.13;1.95;;;18.80;41.40;;;;;;5155963;27;20015;-73
2021/03/06 09:51:43;;;;;;;8.02;2.20;;;18.70;41.20;;;;;;5155812;27;20087;-77
2021/03/06 09:54:10;;;;;;;7.78;2.35;;;18.70;41.60;;;;;;5137307;27;20079;-77
2021/03/06 09:56:54;;;;;;;4.72;2.20;;;18.80;41.70;;;;;;5155904;27;20019;-77
2021/03/06 09:59:21;;;;;;;7.13;2.63;;;18.90;41.50;;;;;;5156240;27;20035;-76
2021/03/06 10:01:46;;;;;;;6.18;2.42;;;18.90;41.30;;;;;;5136671;27;20035;-81
2021/03/06 10:04:15;;;;;;;6.68;2.80;;;18.90;41.10;;;;;;5155243;27;20443;-78
2021/03/06 10:06:44;;;;;;;5.05;2.25;;;18.90;41.30;;;;;;5155724;27;20110;-79
2021/03/06 10:09:13;;;;;;;6.85;2.53;;;18.90;41.50;;;;;;5155178;27;20054;-76
2021/03/06 10:11:43;;;;;;;6.22;2.67;;;18.90;41.20;;;;;;5155399;27;20068;-76
2021/03/06 10:14:11;;;;;;;6.68;3.00;;;18.90;41.20;;;;;;5155585;27;20110;-80
2021/03/06 10:16:52;;;;;;;7.00;2.45;;;19.00;40.70;;;;;;5156425;27;20561;-76
2021/03/06 10:19:20;;;;;;;5.57;2.20;;;19.10;40.40;;;;;;5155272;27;20035;-75
2021/03/06 10:22:03;;;;;;;8.23;2.42;;;19.10;40.70;;;;;;5155408;27;20022;-76
2021/03/06 10:24:29;;;;;;;6.35;2.20;;;19.10;40.70;;;;;;5136197;27;20037;-76
2021/03/06 10:27:01;;;;;;;7.00;2.30;;;19.20;40.80;;;;;;5137999;27;20026;-76
2021/03/06 10:29:28;;;;;;;8.55;2.55;;;19.20;41.20;;;;;;5155219;27;20030;-78
2021/03/06 10:31:57;;;;;;;6.07;1.83;;;19.30;41.30;;;;;;5155540;27;20026;-77
2021/03/06 10:34:34;;;;;;;4.60;1.92;;;19.30;41.40;;;;;;5155161;27;20029;-76
2021/03/06 10:37:19;;;;;;;6.70;1.90;;;19.40;41.30;;;;;;5154933;27;20474;-75
2021/03/06 10:39:53;;;;;;;5.07;2.00;;;19.40;41.30;;;;;;5157895;27;20397;-75
2021/03/06 10:42:19;;;;;;;5.90;2.63;;;19.40;41.10;;;;;;5153621;27;20019;-76
2021/03/06 10:44:45;;;;;;;4.45;1.65;;;19.50;41.10;;;;;;5154540;27;20434;-75
2021/03/06 10:47:11;;;;;;;7.03;2.15;;;19.50;41.30;;;;;;5139760;27;20030;-76
2021/03/06 10:49:38;;;;;;;8.77;2.00;;;19.50;41.10;;;;;;5136373;27;20022;-76
2021/03/06 10:52:05;;;;;;;5.88;1.67;;;19.60;41.10;;;;;;5153541;27;20019;-76
2021/03/06 10:54:50;;;;;;;5.20;1.75;;;19.60;40.90;;;;;;5153887;27;20386;-77
2021/03/06 10:57:16;;;;;;;4.05;1.83;;;19.70;40.90;;;;;;5157898;27;20031;-76
2021/03/06 10:59:42;;;;;;;5.07;2.33;;;19.70;40.70;;;;;;5154360;27;20082;-75
2021/03/06 11:02:07;;;;;;;3.28;1.63;;;19.70;40.60;;;;;;5154591;27;20102;-77
2021/03/06 11:04:35;;;;;;;4.53;2.25;;;19.80;40.50;;;;;;5153976;27;20063;-76
2021/03/06 11:07:05;;;;;;;5.57;2.08;;;19.90;40.30;;;;;;5174001;27;20030;-76
2021/03/06 11:09:34;;;;;;;6.05;1.60;;;19.90;40.00;;;;;;5175378;27;20023;-76
2021/03/06 11:12:19;;;;;;;3.42;1.50;;;20.00;39.80;;;;;;5175119;27;20030;-75
2021/03/06 11:14:46;;;;;;;5.35;1.70;;;20.00;39.80;;;;;;5175124;27;20019;-75
2021/03/06 11:17:17;;;;;;;5.38;1.50;;;20.10;39.60;;;;;;5172995;27;20409;-76
2021/03/06 11:19:43;;;;;;;5.10;1.60;;;20.20;39.80;;;;;;5156450;27;20569;-75
2021/03/06 11:22:10;;;;;;;4.28;1.85;;;20.30;39.70;;;;;;5174803;27;20120;-75
2021/03/06 11:24:36;;;;;;;3.25;1.60;;;20.30;39.60;;;;;;5175091;27;20062;-75
2021/03/06 11:27:02;;;;;;;5.60;1.40;;;20.40;39.60;;;;;;5174992;27;20034;-76
2021/03/06 11:29:29;;;;;;;4.00;1.40;;;20.50;39.60;;;;;;5175018;27;20034;-76
2021/03/06 11:31:55;;;;;;;3.20;1.40;;;20.60;39.60;;;;;;5174984;27;20024;-75
2021/03/06 11:34:24;;;;;;;2.92;1.33;;;20.60;39.50;;;;;;5174691;27;20456;-75
2021/03/06 11:36:50;;;;;;;3.20;1.20;;;20.70;39.40;;;;;;5156860;27;20034;-75
2021/03/06 11:39:16;;;;;;;4.47;1.77;;;20.80;40.10;;;;;;5153855;27;20026;-77
2021/03/06 11:41:42;;;;;;;5.43;1.63;;;20.90;39.70;;;;;;5135265;27;20017;-76
2021/03/06 11:44:08;;;;;;;8.48;1.90;;;21.00;39.60;;;;;;5153811;27;20105;-76
2021/03/06 11:46:35;;;;;;;8.35;1.80;;;21.10;39.60;;;;;;5153677;27;20019;-77
2021/03/06 11:49:01;;;;;;;7.15;2.17;;;21.20;39.20;;;;;;5157247;27;20023;-77
2021/03/06 11:51:27;;;;;;;4.45;1.30;;;21.30;39.00;;;;;;5153704;27;20114;-77
2021/03/06 11:53:52;;;;;;;4.93;1.20;;;21.50;39.00;;;;;;5153500;27;20027;-77
2021/03/06 11:56:18;;;;;;;7.35;1.55;;;21.70;39.10;;;;;;5137949;27;20041;-78
2021/03/06 11:58:44;;;;;;;5.15;1.45;;;21.70;39.00;;;;;;5139267;27;20035;-78
2021/03/06 12:01:09;;;;;;;6.65;1.80;;;21.80;39.10;;;;;;5132731;27;20476;-78
2021/03/06 12:03:35;;;;;;;6.38;1.90;;;21.90;38.70;;;;;;5153288;27;20500;-78
2021/03/06 12:06:01;;;;;;;5.72;1.13;;;22.10;38.80;;;;;;5133506;27;20022;-79
2021/03/06 12:08:26;;;;;;;3.97;1.13;;;22.20;38.30;;;;;;5153321;27;20030;-76
2021/03/06 12:10:52;;;;;;;5.03;1.35;;;22.60;38.10;;;;;;5155427;27;20026;-77
2021/03/06 12:13:17;;;;;;;2.78;1.27;;;23.30;37.80;;;;;;5165999;27;20023;-79
2021/03/06 12:15:43;;;;;;;4.72;1.40;;;24.60;36.40;;;;;;5152924;27;20061;-77
2021/03/06 12:18:08;;;;;;;1.73;1.10;;;26.10;34.30;;;;;;5153174;27;20035;-79
2021/03/06 12:20:34;;;;;;;2.65;1.10;;;27.50;32.40;;;;;;5152856;27;20079;-78
2021/03/06 12:23:00;;;;;;;4.15;1.00;;;28.40;30.70;;;;;;5153403;27;20022;-78
2021/03/06 12:25:26;;;;;;;3.75;1.42;;;29.20;29.60;;;;;;5154350;27;20061;-77
2021/03/06 12:27:51;;;;;;;2.88;1.10;;;29.90;28.90;;;;;;5153118;27;20053;-78
2021/03/06 12:30:17;;;;;;;5.00;1.30;;;30.60;27.90;;;;;;5153128;27;20077;-79
2021/03/06 12:32:46;;;;;;;6.22;1.40;;;31.10;27.50;;;;;;5134771;27;20079;-78
2021/03/06 12:35:12;;;;;;;3.08;1.20;;;31.50;27.00;;;;;;5153184;27;20022;-78
2021/03/06 12:37:38;;;;;;;2.17;1.05;;;31.70;26.50;;;;;;5160028;27;20019;-77
2021/03/06 12:40:06;;;;;;;4.35;1.30;;;31.70;26.10;;;;;;5169102;27;20079;-78
2021/03/06 12:42:32;;;;;;;2.35;1.10;;;31.90;25.90;;;;;;5151651;27;20359;-78
2021/03/06 12:44:58;;;;;;;1.85;1.15;;;32.20;25.80;;;;;;5134794;27;20035;-78
2021/03/06 12:47:23;;;;;;;2.63;1.20;;;32.40;25.50;;;;;;5152771;27;20019;-77
2021/03/06 12:49:49;;;;;;;2.33;1.10;;;32.50;25.40;;;;;;5152584;27;20434;-78
2021/03/06 12:52:14;;;;;;;3.42;1.00;;;32.40;25.10;;;;;;5152880;27;20033;-77
2021/03/06 12:54:40;;;;;;;3.83;1.60;;;32.00;25.60;;;;;;5153209;27;20015;-78
2021/03/06 12:57:06;;;;;;;6.40;1.85;;;30.40;26.30;;;;;;5152661;27;20027;-78